Terminal Aerodrome Forecast
Issued by NWS

Home | Current Version | Previous Version | Graphics & Text | Print | Product List | Glossary On
Versions: 1 2 3 4 5 6 7 8 9 10 11 12 13 14 15 16 17 18 19
000
FTUS43 KICT 202000 AAA
TAFSLN
TAF AMD
KSLN 202049Z 2021/2118 22012KT P6SM SCT040
     FM202100 36010KT P6SM VCTS BKN050CB
      TEMPO 2021/2024 -TSRA
     FM210100 03010KT P6SM VCTS OVC050CB
     FM210800 03010KT P6SM SCT100=

USA.gov is the U.S. government's official web portal to all federal, state and local government web resources and services.